createdAt,value
2022-12-22T00:00:11.415Z,77.40
2022-12-22T00:05:42.245Z,77.30
2022-12-22T00:11:02.630Z,77.59
2022-12-22T00:16:23.189Z,77.44
2022-12-22T00:21:47.549Z,77.21
2022-12-22T00:27:08.071Z,77.32
2022-12-22T00:32:33.257Z,77.66
2022-12-22T00:37:55.906Z,77.32
2022-12-22T00:43:16.385Z,77.15
2022-12-22T00:48:45.697Z,77.25
2022-12-22T00:54:06.373Z,77.37
2022-12-22T00:59:28.541Z,77.45
2022-12-22T01:04:49.168Z,77.37
2022-12-22T01:10:11.301Z,77.42
2022-12-22T01:15:37.878Z,77.24
2022-12-22T01:20:58.403Z,77.42
2022-12-22T01:26:19.119Z,77.31
2022-12-22T01:31:48.285Z,77.46
2022-12-22T01:37:08.752Z,77.16
2022-12-22T01:42:31.236Z,77.43
2022-12-22T01:47:53.326Z,77.41
2022-12-22T01:53:19.656Z,77.46
2022-12-22T01:58:45.955Z,77.83
2022-12-22T02:04:06.640Z,77.57
2022-12-22T02:09:42.140Z,77.30
2022-12-22T02:15:16.870Z,77.20
2022-12-22T02:20:56.564Z,77.49
2022-12-22T02:26:35.975Z,77.74
2022-12-22T02:31:58.136Z,77.60
2022-12-22T02:37:27.988Z,77.63
2022-12-22T02:43:40.819Z,77.55
2022-12-22T02:49:30.128Z,77.46
2022-12-22T02:54:51.798Z,77.84
2022-12-22T03:00:12.685Z,77.55
2022-12-22T03:05:33.044Z,77.46
2022-12-22T03:10:53.890Z,77.75
2022-12-22T03:16:14.354Z,77.84
2022-12-22T03:21:35.342Z,77.85
2022-12-22T03:26:39.129Z,77.75
2022-12-22T03:31:42.260Z,77.92
2022-12-22T03:36:44.277Z,77.89
2022-12-22T03:42:04.732Z,78.13
2022-12-22T03:47:06.785Z,77.76
2022-12-22T03:52:08.919Z,77.75
2022-12-22T03:57:10.942Z,78.17
2022-12-22T04:02:13.326Z,78.12
2022-12-22T04:07:15.424Z,77.87
2022-12-22T04:12:36.075Z,77.70
2022-12-22T04:17:38.035Z,77.65
2022-12-22T04:22:40.041Z,77.79
2022-12-22T04:27:42.106Z,77.58
2022-12-22T04:32:44.206Z,77.65
2022-12-22T04:37:46.276Z,77.79
2022-12-22T04:42:48.303Z,77.74
2022-12-22T04:47:50.296Z,77.74
2022-12-22T04:52:52.335Z,78.15
2022-12-22T04:57:54.362Z,77.79
2022-12-22T05:02:56.518Z,78.08
2022-12-22T05:07:58.551Z,77.42
2022-12-22T05:13:00.540Z,77.60
2022-12-22T05:18:03.759Z,77.57
2022-12-22T05:23:05.801Z,77.59
2022-12-22T05:28:07.810Z,78.16
2022-12-22T05:33:09.807Z,78.00
2022-12-22T05:38:11.769Z,77.92
2022-12-22T05:43:13.784Z,78.40
2022-12-22T05:48:16.603Z,78.03
2022-12-22T05:53:20.842Z,78.20
2022-12-22T05:58:22.817Z,78.15
2022-12-22T06:03:26.530Z,78.21
2022-12-22T06:08:28.754Z,77.86
2022-12-22T06:13:30.815Z,78.07
2022-12-22T06:18:32.747Z,78.31
2022-12-22T06:23:34.721Z,77.76
2022-12-22T06:28:36.688Z,77.96
2022-12-22T06:33:38.710Z,78.30
2022-12-22T06:38:40.780Z,78.30
2022-12-22T06:43:42.776Z,77.84
2022-12-22T06:48:44.756Z,78.37
2022-12-22T06:54:05.833Z,78.03
2022-12-22T06:59:07.924Z,77.82
2022-12-22T07:04:10.943Z,77.83
2022-12-22T07:09:13.010Z,77.99
2022-12-22T07:14:15.054Z,77.77
2022-12-22T07:19:16.973Z,78.14
2022-12-22T07:24:23.932Z,78.11
2022-12-22T07:29:26.013Z,77.69
2022-12-22T07:34:28.106Z,77.35
2022-12-22T07:39:30.057Z,77.86
2022-12-22T07:44:32.104Z,77.91
2022-12-22T07:49:52.984Z,77.53
2022-12-22T07:54:54.965Z,77.31
2022-12-22T07:59:57.024Z,78.03
2022-12-22T08:04:59.291Z,77.51
2022-12-22T08:10:01.624Z,77.93
2022-12-22T08:15:06.711Z,77.31
2022-12-22T08:20:09.357Z,77.28
2022-12-22T08:25:11.461Z,77.34
2022-12-22T08:30:15.117Z,77.50
2022-12-22T08:35:17.726Z,77.11
2022-12-22T08:40:24.235Z,77.30
2022-12-22T08:45:26.616Z,77.51
2022-12-22T08:50:28.716Z,76.93
2022-12-22T08:55:31.234Z,77.18
2022-12-22T09:00:33.558Z,76.67
2022-12-22T09:05:38.587Z,76.93
2022-12-22T09:10:43.984Z,77.02
2022-12-22T09:15:45.966Z,76.83
2022-12-22T09:20:47.998Z,77.63
2022-12-22T09:25:50.192Z,76.65
2022-12-22T09:30:54.634Z,76.96
2022-12-22T09:35:56.847Z,77.20
2022-12-22T09:41:32.083Z,77.32
2022-12-22T09:46:37.714Z,76.49
2022-12-22T09:51:44.156Z,77.11
2022-12-22T09:56:46.175Z,77.12
2022-12-22T10:02:22.381Z,77.63
2022-12-22T10:07:35.505Z,77.32
2022-12-22T10:12:37.522Z,77.18
2022-12-22T10:17:39.518Z,76.88
2022-12-22T10:22:51.642Z,77.37
2022-12-22T10:27:57.345Z,76.83
2022-12-22T10:33:04.237Z,76.92
2022-12-22T10:38:33.105Z,77.41
2022-12-22T10:43:38.937Z,76.80
2022-12-22T10:48:41.280Z,76.98
2022-12-22T10:53:54.218Z,77.16
2022-12-22T10:58:57.465Z,77.07
2022-12-22T11:04:16.960Z,76.92
2022-12-22T11:09:35.492Z,76.85
2022-12-22T11:15:10.278Z,77.60
2022-12-22T11:20:40.197Z,77.23
2022-12-22T11:26:02.604Z,77.50
2022-12-22T11:31:39.860Z,77.18
2022-12-22T11:37:07.700Z,77.57
2022-12-22T11:42:27.994Z,77.30
2022-12-22T11:47:55.070Z,77.43
2022-12-22T11:53:01.340Z,76.98
2022-12-22T11:58:36.783Z,77.23
2022-12-22T12:03:38.834Z,77.20
2022-12-22T12:08:46.679Z,77.56
2022-12-22T12:14:24.055Z,77.55
2022-12-22T12:20:03.523Z,77.44
2022-12-22T12:25:25.592Z,77.10
2022-12-22T12:30:38.852Z,77.31
2022-12-22T12:36:08.890Z,77.72
2022-12-22T12:41:25.697Z,77.82
2022-12-22T12:46:53.043Z,77.26
2022-12-22T12:51:55.447Z,77.39
2022-12-22T12:57:52.656Z,77.57
2022-12-22T13:02:58.912Z,77.42
2022-12-22T13:08:22.003Z,77.33
2022-12-22T13:13:24.101Z,77.26
2022-12-22T13:18:26.150Z,77.08
2022-12-22T13:24:06.198Z,77.08
2022-12-22T13:29:14.954Z,77.12
2022-12-22T13:34:25.845Z,77.02
2022-12-22T13:39:27.964Z,76.61
2022-12-22T13:44:32.694Z,77.08
2022-12-22T13:50:07.133Z,76.79
2022-12-22T13:54:57.632Z,76.36
2022-12-22T13:59:59.759Z,76.79
2022-12-22T14:05:12.638Z,77.06
2022-12-22T14:10:14.672Z,76.88
2022-12-22T14:15:19.161Z,77.21
2022-12-22T14:20:27.231Z,76.46
2022-12-22T14:25:33.814Z,76.76
2022-12-22T14:30:41.590Z,76.40
2022-12-22T14:35:43.919Z,76.65
2022-12-22T14:40:49.754Z,76.25
2022-12-22T14:46:06.940Z,76.43
2022-12-22T14:51:09.174Z,76.59
2022-12-22T14:56:14.018Z,76.75
2022-12-22T15:01:28.858Z,76.57
2022-12-22T15:06:41.727Z,77.10
2022-12-22T15:11:53.192Z,76.97
2022-12-22T15:16:57.762Z,76.62
2022-12-22T15:21:59.980Z,76.84
2022-12-22T15:27:01.944Z,76.18
2022-12-22T15:32:04.130Z,76.14
2022-12-22T15:37:06.088Z,76.16
2022-12-22T15:42:08.106Z,76.41
2022-12-22T15:47:12.071Z,76.36
2022-12-22T15:52:14.889Z,76.09
2022-12-22T15:57:16.969Z,76.22
2022-12-22T16:02:19.156Z,76.33
2022-12-22T16:07:21.414Z,76.26
2022-12-22T16:12:24.081Z,76.25
2022-12-22T16:17:28.006Z,76.13
2022-12-22T16:22:33.748Z,76.09
2022-12-22T16:27:36.018Z,76.08
2022-12-22T16:32:39.660Z,76.35
2022-12-22T16:37:42.151Z,76.09
2022-12-22T16:48:18.684Z,76.03
2022-12-22T16:53:20.674Z,75.77
2022-12-22T16:58:22.690Z,75.70
2022-12-22T17:03:27.269Z,75.96
2022-12-22T17:08:36.719Z,75.56
2022-12-22T17:13:39.180Z,75.23
2022-12-22T17:18:41.224Z,75.50
2022-12-22T17:23:47.497Z,75.31
2022-12-22T17:28:50.202Z,75.51
2022-12-22T17:33:52.200Z,75.39
2022-12-22T17:38:54.617Z,75.45
2022-12-22T17:43:56.630Z,75.31
2022-12-22T17:48:58.644Z,74.93
2022-12-22T17:54:00.815Z,74.95
2022-12-22T17:59:02.838Z,75.02
2022-12-22T18:04:05.204Z,74.71
2022-12-22T18:09:10.602Z,75.05
2022-12-22T18:14:14.203Z,75.00
2022-12-22T18:19:16.228Z,74.91
2022-12-22T18:24:19.588Z,75.72
2022-12-22T18:29:21.566Z,75.28
2022-12-22T18:34:23.559Z,74.87
2022-12-22T18:39:25.771Z,74.35
2022-12-22T18:44:27.749Z,74.40
2022-12-22T18:49:29.738Z,74.41
2022-12-22T18:54:33.416Z,74.82
2022-12-22T18:59:35.566Z,74.67
2022-12-22T19:04:37.598Z,74.77
2022-12-22T19:09:39.631Z,75.33
2022-12-22T19:14:45.179Z,75.16
2022-12-22T19:19:47.303Z,75.37
2022-12-22T19:24:50.342Z,74.92
2022-12-22T19:30:03.148Z,75.60
2022-12-22T19:35:14.154Z,75.65
2022-12-22T19:40:17.814Z,75.31
2022-12-22T19:45:27.299Z,75.01
2022-12-22T19:50:30.746Z,75.19
2022-12-22T19:55:40.541Z,75.16
2022-12-22T20:00:43.100Z,74.91
2022-12-22T20:05:45.266Z,75.20
2022-12-22T20:10:49.591Z,74.82
2022-12-22T20:15:55.029Z,74.31
2022-12-22T20:20:59.920Z,74.83
2022-12-22T20:26:23.535Z,74.61
2022-12-22T20:31:25.834Z,74.24
2022-12-22T20:36:32.089Z,74.32
2022-12-22T20:41:34.168Z,73.94
2022-12-22T20:46:36.203Z,74.24
2022-12-22T20:51:38.318Z,74.26
2022-12-22T20:56:43.950Z,74.04
2022-12-22T21:01:47.185Z,74.24
2022-12-22T21:06:52.774Z,74.39
2022-12-22T21:11:54.752Z,74.34
2022-12-22T21:16:57.107Z,74.48
2022-12-22T21:21:59.218Z,74.34
2022-12-22T21:27:01.380Z,74.46
2022-12-22T21:32:03.477Z,74.82
2022-12-22T21:37:05.524Z,75.22
2022-12-22T21:42:13.584Z,74.32
2022-12-22T21:47:18.434Z,74.81
2022-12-22T21:52:20.558Z,74.40
2022-12-22T21:57:22.563Z,74.41
2022-12-22T22:02:24.712Z,74.09
2022-12-22T22:07:26.734Z,73.72
2022-12-22T22:12:36.880Z,73.54
2022-12-22T22:17:39.126Z,74.07
2022-12-22T22:22:41.385Z,74.11
2022-12-22T22:27:47.906Z,73.78
2022-12-22T22:32:50.696Z,74.02
2022-12-22T22:37:52.911Z,74.04
2022-12-22T22:42:56.941Z,73.92
2022-12-22T22:47:59.018Z,74.16
2022-12-22T22:53:01.071Z,74.25
2022-12-22T22:58:03.133Z,74.50
2022-12-22T23:03:05.372Z,74.19
2022-12-22T23:08:07.542Z,74.49
2022-12-22T23:13:09.614Z,74.54
2022-12-22T23:18:11.735Z,74.34
2022-12-22T23:23:13.800Z,73.81
2022-12-22T23:28:16.693Z,74.08
2022-12-22T23:33:19.966Z,74.42
2022-12-22T23:38:21.943Z,74.33
2022-12-22T23:43:23.993Z,74.32
2022-12-22T23:48:26.178Z,73.82
2022-12-22T23:53:28.408Z,74.12
2022-12-22T23:58:30.663Z,74.13
